createdAt,value
2023-04-08T00:00:25.061Z,24.10
2023-04-08T00:01:25.094Z,24.10
2023-04-08T00:02:25.248Z,24.09
2023-04-08T00:03:25.325Z,24.10
2023-04-08T00:04:25.468Z,24.10
2023-04-08T00:05:25.352Z,24.09
2023-04-08T00:06:25.388Z,24.10
2023-04-08T00:07:25.489Z,24.10
2023-04-08T00:08:25.556Z,24.09
2023-04-08T00:09:25.552Z,24.09
2023-04-08T00:10:25.636Z,24.08
2023-04-08T00:11:25.673Z,24.09
2023-04-08T00:12:25.755Z,24.09
2023-04-08T00:13:25.843Z,24.09
2023-04-08T00:14:25.850Z,24.09
2023-04-08T00:15:26.009Z,24.09
2023-04-08T00:16:25.991Z,24.09
2023-04-08T00:17:26.031Z,24.09
2023-04-08T00:18:26.055Z,24.09
2023-04-08T00:19:26.139Z,24.09
2023-04-08T00:20:26.185Z,24.09
2023-04-08T00:21:26.251Z,24.09
2023-04-08T00:22:26.330Z,24.09
2023-04-08T00:23:26.342Z,24.09
2023-04-08T00:24:26.441Z,24.09
2023-04-08T00:25:26.542Z,24.08
2023-04-08T00:26:26.532Z,24.09
2023-04-08T00:27:26.603Z,24.09
2023-04-08T00:28:26.631Z,24.08
2023-04-08T00:29:26.705Z,24.10
2023-04-08T00:30:26.780Z,24.09
2023-04-08T00:31:26.934Z,24.08
2023-04-08T00:32:26.877Z,24.09
2023-04-08T00:33:26.926Z,24.09
2023-04-08T00:34:27.024Z,24.09
2023-04-08T00:35:27.102Z,24.09
2023-04-08T00:36:27.122Z,24.08
2023-04-08T00:37:27.187Z,24.08
2023-04-08T00:38:27.248Z,24.09
2023-04-08T00:39:27.296Z,24.09
2023-04-08T00:40:27.383Z,24.08
2023-04-08T00:41:27.409Z,24.09
2023-04-08T00:42:27.499Z,24.08
2023-04-08T00:43:27.524Z,24.08
2023-04-08T00:44:27.613Z,24.08
2023-04-08T00:45:27.645Z,24.08
2023-04-08T00:46:27.904Z,24.08
2023-04-08T00:47:27.792Z,24.08
2023-04-08T00:48:27.885Z,24.08
2023-04-08T00:49:27.874Z,24.08
2023-04-08T00:50:27.952Z,24.08
2023-04-08T00:51:27.992Z,24.08
2023-04-08T00:52:28.050Z,24.08
2023-04-08T00:53:28.114Z,24.08
2023-04-08T00:54:28.181Z,24.07
2023-04-08T00:55:28.211Z,24.08
2023-04-08T00:56:28.334Z,24.08
2023-04-08T00:57:28.382Z,24.07
2023-04-08T00:58:28.404Z,24.08
2023-04-08T00:59:28.464Z,24.07
2023-04-08T01:00:28.495Z,24.07
2023-04-08T01:01:28.603Z,24.07
2023-04-08T01:02:28.771Z,24.08
2023-04-08T01:03:28.739Z,24.07
2023-04-08T01:04:28.797Z,24.08
2023-04-08T01:05:28.789Z,24.07
2023-04-08T01:06:28.830Z,24.07
2023-04-08T01:07:28.913Z,24.07
2023-04-08T01:08:28.944Z,24.08
2023-04-08T01:09:29.036Z,24.07
2023-04-08T01:10:29.081Z,24.06
2023-04-08T01:11:29.101Z,24.07
2023-04-08T01:12:29.221Z,24.07
2023-04-08T01:13:29.230Z,24.07
2023-04-08T01:14:29.291Z,24.07
2023-04-08T01:15:29.471Z,24.07
2023-04-08T01:16:29.406Z,24.07
2023-04-08T01:17:29.483Z,24.07
2023-04-08T01:18:29.493Z,24.07
2023-04-08T01:19:29.552Z,24.07
2023-04-08T01:20:29.612Z,24.07
2023-04-08T01:21:29.653Z,24.07
2023-04-08T01:22:29.754Z,24.06
2023-04-08T01:23:29.771Z,24.07
2023-04-08T01:24:29.883Z,24.07
2023-04-08T01:25:29.914Z,24.06
2023-04-08T01:26:29.969Z,24.07
2023-04-08T01:27:29.999Z,24.06
2023-04-08T01:28:30.041Z,24.06
2023-04-08T01:29:30.096Z,24.05
2023-04-08T01:30:30.207Z,24.06
2023-04-08T01:31:30.351Z,24.06
2023-04-08T01:32:30.302Z,24.06
2023-04-08T01:33:30.338Z,24.06
2023-04-08T01:34:30.383Z,24.06
2023-04-08T01:35:30.476Z,24.07
2023-04-08T01:36:30.503Z,24.06
2023-04-08T01:37:30.559Z,24.06
2023-04-08T01:38:30.629Z,24.07
2023-04-08T01:39:30.693Z,24.06
2023-04-08T01:40:30.737Z,24.05
2023-04-08T01:41:30.779Z,24.06
2023-04-08T01:42:30.824Z,24.06
2023-04-08T01:43:30.936Z,24.06
2023-04-08T01:44:30.948Z,24.07
2023-04-08T01:45:31.050Z,24.06
2023-04-08T01:46:31.095Z,24.06
2023-04-08T01:47:31.176Z,24.05
2023-04-08T01:48:31.190Z,24.05
2023-04-08T01:49:31.217Z,24.05
2023-04-08T01:50:31.293Z,24.05
2023-04-08T01:51:31.360Z,24.06
2023-04-08T01:52:31.434Z,24.06
2023-04-08T01:53:31.477Z,24.06
2023-04-08T01:54:31.540Z,24.06
2023-04-08T01:55:31.544Z,24.06
2023-04-08T01:56:31.587Z,24.05
2023-04-08T01:57:31.638Z,24.05
2023-04-08T01:58:31.670Z,24.04
2023-04-08T01:59:31.716Z,24.07
2023-04-08T02:00:31.734Z,24.06
2023-04-08T02:01:31.853Z,24.05
2023-04-08T02:02:32.034Z,24.06
2023-04-08T02:03:32.015Z,24.05
2023-04-08T02:04:32.105Z,24.05
2023-04-08T02:05:32.022Z,24.06
2023-04-08T02:06:32.075Z,24.05
2023-04-08T02:07:32.128Z,24.05
2023-04-08T02:08:32.174Z,24.04
2023-04-08T02:09:32.199Z,24.06
2023-04-08T02:10:32.298Z,24.06
2023-04-08T02:11:32.358Z,24.05
2023-04-08T02:12:32.364Z,24.05
2023-04-08T02:13:32.463Z,24.05
2023-04-08T02:14:32.482Z,24.06
2023-04-08T02:15:32.553Z,24.06
2023-04-08T02:16:32.667Z,24.06
2023-04-08T02:17:34.063Z,24.05
2023-04-08T02:18:32.667Z,24.05
2023-04-08T02:19:32.679Z,24.06
2023-04-08T02:20:32.684Z,24.07
2023-04-08T02:21:32.691Z,24.06
2023-04-08T02:22:32.718Z,24.07
2023-04-08T02:23:32.706Z,24.06
2023-04-08T02:24:32.685Z,24.06
2023-04-08T02:25:32.699Z,24.06
2023-04-08T02:26:32.700Z,24.06
2023-04-08T02:27:32.706Z,24.06
2023-04-08T02:28:32.720Z,24.06
2023-04-08T02:29:32.732Z,24.06
2023-04-08T02:30:32.985Z,24.07
2023-04-08T02:31:32.807Z,24.07
2023-04-08T02:32:32.755Z,24.06
2023-04-08T02:33:32.758Z,24.08
2023-04-08T02:34:32.754Z,24.08
2023-04-08T02:35:32.801Z,24.07
2023-04-08T02:36:32.764Z,24.07
2023-04-08T02:37:32.799Z,24.07
2023-04-08T02:38:32.822Z,24.07
2023-04-08T02:39:32.831Z,24.07
2023-04-08T02:40:32.788Z,24.07
2023-04-08T02:41:32.842Z,24.07
2023-04-08T02:42:32.830Z,24.07
2023-04-08T02:43:32.852Z,24.08
2023-04-08T02:44:32.859Z,24.08
2023-04-08T02:45:32.937Z,24.07
2023-04-08T02:46:32.907Z,24.07
2023-04-08T02:47:32.918Z,24.08
2023-04-08T02:48:32.894Z,24.08
2023-04-08T02:49:32.893Z,24.07
2023-04-08T02:50:32.894Z,24.07
2023-04-08T02:51:32.894Z,24.08
2023-04-08T02:52:32.973Z,24.08
2023-04-08T02:53:32.922Z,24.08
2023-04-08T02:54:32.936Z,24.08
2023-04-08T02:55:32.930Z,24.08
2023-04-08T02:56:32.972Z,24.08
2023-04-08T02:57:32.946Z,24.08
2023-04-08T02:58:32.971Z,24.08
2023-04-08T02:59:32.962Z,24.07
2023-04-08T03:00:33.000Z,24.08
2023-04-08T03:01:33.043Z,24.07
2023-04-08T03:02:33.106Z,24.07
2023-04-08T03:03:33.165Z,24.08
2023-04-08T03:04:33.016Z,24.07
2023-04-08T03:05:33.007Z,24.07
2023-04-08T03:06:33.040Z,24.08
2023-04-08T03:07:33.086Z,24.08
2023-04-08T03:08:33.154Z,24.08
2023-04-08T03:09:33.189Z,24.08
2023-04-08T03:10:33.242Z,24.08
2023-04-08T03:11:33.286Z,24.07
2023-04-08T03:12:33.374Z,24.08
2023-04-08T03:13:33.452Z,24.07
2023-04-08T03:14:33.470Z,24.07
2023-04-08T03:15:33.551Z,24.08
2023-04-08T03:16:33.624Z,24.07
2023-04-08T03:17:33.686Z,24.08
2023-04-08T03:18:33.700Z,24.08
2023-04-08T03:19:33.753Z,24.07
2023-04-08T03:20:33.819Z,24.07
2023-04-08T03:21:33.888Z,24.07
2023-04-08T03:22:33.942Z,24.07
2023-04-08T03:23:34.008Z,24.07
2023-04-08T03:24:34.063Z,24.08
2023-04-08T03:25:34.102Z,24.07
2023-04-08T03:26:34.200Z,24.07
2023-04-08T03:27:34.234Z,24.08
2023-04-08T03:28:34.301Z,24.07
2023-04-08T03:29:34.325Z,24.07
2023-04-08T03:30:34.403Z,24.08
2023-04-08T03:31:34.479Z,24.07
2023-04-08T03:32:34.579Z,24.07
2023-04-08T03:33:34.592Z,24.07
2023-04-08T03:34:34.722Z,24.07
2023-04-08T03:35:34.739Z,24.07
2023-04-08T03:36:34.758Z,24.07
2023-04-08T03:37:34.772Z,24.07
2023-04-08T03:38:34.860Z,24.07
2023-04-08T03:39:34.887Z,24.07
2023-04-08T03:40:34.971Z,24.06
2023-04-08T03:41:35.024Z,24.07
2023-04-08T03:42:35.080Z,24.07
2023-04-08T03:43:36.770Z,24.05
2023-04-08T03:44:35.181Z,24.07
2023-04-08T03:45:35.127Z,24.06
2023-04-08T03:46:35.156Z,24.07
2023-04-08T03:47:35.198Z,24.06
2023-04-08T03:48:35.157Z,24.07
2023-04-08T03:49:35.143Z,24.07
2023-04-08T03:50:35.138Z,24.07
2023-04-08T03:51:35.135Z,24.07
2023-04-08T03:52:35.172Z,24.07
2023-04-08T03:53:35.160Z,24.07
2023-04-08T03:54:35.214Z,24.07
2023-04-08T03:55:35.170Z,24.07
2023-04-08T03:56:35.178Z,24.06
2023-04-08T03:57:35.182Z,24.07
2023-04-08T03:58:35.203Z,24.07
2023-04-08T03:59:35.212Z,24.07
2023-04-08T04:00:35.187Z,24.07
2023-04-08T04:01:35.203Z,24.07
2023-04-08T04:02:35.313Z,24.07
2023-04-08T04:03:35.297Z,24.07
2023-04-08T04:04:35.267Z,24.07
2023-04-08T04:05:35.223Z,24.07
2023-04-08T04:06:35.206Z,24.06
2023-04-08T04:07:35.229Z,24.06
2023-04-08T04:08:35.223Z,24.07
2023-04-08T04:09:35.254Z,24.07
2023-04-08T04:10:35.218Z,24.07
2023-04-08T04:11:35.253Z,24.07
2023-04-08T04:12:35.284Z,24.07
2023-04-08T04:13:35.221Z,24.07
2023-04-08T04:14:35.263Z,24.07
2023-04-08T04:15:35.337Z,24.08
2023-04-08T04:16:35.269Z,24.07
2023-04-08T04:17:35.315Z,24.07
2023-04-08T04:18:35.315Z,24.07
2023-04-08T04:19:35.282Z,24.08
2023-04-08T04:20:35.285Z,24.08
2023-04-08T04:21:35.263Z,24.08
2023-04-08T04:22:35.301Z,24.07
2023-04-08T04:23:36.022Z,24.07
2023-04-08T04:24:35.294Z,24.07
2023-04-08T04:25:35.278Z,24.08
2023-04-08T04:26:35.300Z,24.07
2023-04-08T04:27:35.299Z,24.07
2023-04-08T04:28:35.297Z,24.07
2023-04-08T04:29:35.312Z,24.07
2023-04-08T04:30:35.283Z,24.07
2023-04-08T04:31:35.377Z,24.07
2023-04-08T04:32:35.283Z,24.07
2023-04-08T04:33:35.340Z,24.07
2023-04-08T04:34:35.324Z,24.06
2023-04-08T04:35:35.389Z,24.07
2023-04-08T04:36:35.459Z,24.06
2023-04-08T04:37:35.490Z,24.06
2023-04-08T04:38:35.556Z,24.07
2023-04-08T04:39:35.582Z,24.07
2023-04-08T04:40:35.647Z,24.07
2023-04-08T04:41:35.687Z,24.07
2023-04-08T04:42:35.779Z,24.07
2023-04-08T04:43:35.808Z,24.07
2023-04-08T04:44:35.879Z,24.07
2023-04-08T04:45:35.958Z,24.07
2023-04-08T04:46:36.019Z,24.07
2023-04-08T04:47:36.085Z,24.06
2023-04-08T04:48:36.099Z,24.07
2023-04-08T04:49:36.159Z,24.07
2023-04-08T04:50:36.229Z,24.07
2023-04-08T04:51:36.277Z,24.07
2023-04-08T04:52:36.315Z,24.07
2023-04-08T04:53:36.395Z,24.07
2023-04-08T04:54:36.418Z,24.07
2023-04-08T04:55:38.683Z,24.07
2023-04-08T04:56:36.469Z,24.08
2023-04-08T04:57:36.469Z,24.07
2023-04-08T04:58:36.464Z,24.07
2023-04-08T04:59:37.046Z,24.07
2023-04-08T05:00:36.485Z,24.07
2023-04-08T05:01:36.558Z,24.07
2023-04-08T05:02:36.691Z,24.07
2023-04-08T05:03:36.541Z,24.07
2023-04-08T05:04:36.515Z,24.06
2023-04-08T05:05:36.538Z,24.07
2023-04-08T05:06:36.513Z,24.07
2023-04-08T05:07:36.522Z,24.07
2023-04-08T05:08:36.567Z,24.07
2023-04-08T05:09:36.528Z,24.07
2023-04-08T05:10:36.569Z,24.07
2023-04-08T05:11:36.543Z,24.07
2023-04-08T05:12:36.534Z,24.06
2023-04-08T05:13:36.533Z,24.07
2023-04-08T05:14:36.575Z,24.07
2023-04-08T05:15:36.559Z,24.08
2023-04-08T05:16:36.603Z,24.08
2023-04-08T05:17:36.664Z,24.08
2023-04-08T05:18:36.574Z,24.07
2023-04-08T05:19:36.575Z,24.08
2023-04-08T05:20:36.581Z,24.08
2023-04-08T05:21:36.596Z,24.08
2023-04-08T05:22:36.604Z,24.07
2023-04-08T05:23:36.564Z,24.07
2023-04-08T05:24:36.587Z,24.08
2023-04-08T05:25:36.588Z,24.08
2023-04-08T05:26:36.589Z,24.07
2023-04-08T05:27:36.605Z,24.07
2023-04-08T05:28:36.630Z,24.07
2023-04-08T05:29:36.619Z,24.07
2023-04-08T05:30:36.628Z,24.08
2023-04-08T05:31:36.681Z,24.07
2023-04-08T05:32:36.705Z,24.08
2023-04-08T05:33:36.644Z,24.07
2023-04-08T05:34:36.644Z,24.08
2023-04-08T05:35:36.679Z,24.08
2023-04-08T05:36:36.657Z,24.08
2023-04-08T05:37:36.687Z,24.08
2023-04-08T05:38:36.686Z,24.07
2023-04-08T05:39:36.682Z,24.08
2023-04-08T05:40:36.744Z,24.07
2023-04-08T05:41:36.743Z,24.07
2023-04-08T05:42:36.804Z,24.08
2023-04-08T05:43:36.847Z,24.07
2023-04-08T05:44:36.931Z,24.07
2023-04-08T05:45:36.976Z,24.07
2023-04-08T05:46:37.026Z,24.07
2023-04-08T05:47:37.044Z,24.08
2023-04-08T05:48:37.111Z,24.08
2023-04-08T05:49:38.099Z,24.07
2023-04-08T05:50:37.201Z,24.08
2023-04-08T05:51:38.118Z,24.08
2023-04-08T05:52:37.286Z,24.09
2023-04-08T05:53:37.347Z,24.08
2023-04-08T05:54:37.384Z,24.09
2023-04-08T05:55:37.450Z,24.09
2023-04-08T05:56:37.526Z,24.09
2023-04-08T05:57:37.551Z,24.09
2023-04-08T05:58:37.623Z,24.09
2023-04-08T05:59:37.678Z,24.09
2023-04-08T06:00:37.719Z,24.10
2023-04-08T06:01:37.884Z,24.10
2023-04-08T06:02:38.180Z,24.10
2023-04-08T06:03:37.983Z,24.09
2023-04-08T06:04:38.039Z,24.09
2023-04-08T06:05:37.953Z,24.10
2023-04-08T06:06:37.991Z,24.09
2023-04-08T06:07:38.050Z,24.09
2023-04-08T06:08:38.077Z,24.10
2023-04-08T06:09:38.177Z,24.10
2023-04-08T06:10:38.214Z,24.11
2023-04-08T06:11:38.266Z,24.10
2023-04-08T06:12:38.298Z,24.10
2023-04-08T06:13:38.353Z,24.11
2023-04-08T06:14:38.386Z,24.11
2023-04-08T06:15:38.432Z,24.11
2023-04-08T06:16:38.512Z,24.12
2023-04-08T06:17:38.548Z,24.12
2023-04-08T06:18:38.778Z,24.11
2023-04-08T06:19:38.637Z,24.12
2023-04-08T06:20:38.645Z,24.12
2023-04-08T06:21:38.714Z,24.12
2023-04-08T06:22:38.743Z,24.12
2023-04-08T06:23:38.793Z,24.13
2023-04-08T06:24:38.856Z,24.13
2023-04-08T06:25:38.941Z,24.13
2023-04-08T06:26:38.966Z,24.13
2023-04-08T06:27:39.024Z,24.13
2023-04-08T06:28:39.070Z,24.13
2023-04-08T06:29:39.712Z,24.13
2023-04-08T06:30:39.166Z,24.13
2023-04-08T06:31:39.221Z,24.13
2023-04-08T06:32:39.322Z,24.14
2023-04-08T06:33:39.247Z,24.15
2023-04-08T06:34:39.270Z,24.15
2023-04-08T06:35:39.345Z,24.15
2023-04-08T06:36:39.288Z,24.15
2023-04-08T06:37:39.311Z,24.16
2023-04-08T06:38:39.338Z,24.16
2023-04-08T06:39:39.376Z,24.15
2023-04-08T06:40:39.435Z,24.16
2023-04-08T06:41:39.496Z,24.16
2023-04-08T06:42:39.547Z,24.17
2023-04-08T06:43:39.560Z,24.16
2023-04-08T06:44:39.612Z,24.17
2023-04-08T06:45:39.704Z,24.16
2023-04-08T06:46:39.794Z,24.17
2023-04-08T06:47:39.779Z,24.17
2023-04-08T06:48:39.828Z,24.17
2023-04-08T06:49:39.862Z,24.17
2023-04-08T06:50:40.120Z,24.17
2023-04-08T06:51:39.937Z,24.18
2023-04-08T06:52:40.041Z,24.18
2023-04-08T06:53:40.014Z,24.18
2023-04-08T06:54:40.087Z,24.18
2023-04-08T06:55:40.142Z,24.19
2023-04-08T06:56:40.163Z,24.18
2023-04-08T06:57:40.220Z,24.18
2023-04-08T06:58:40.241Z,24.19
2023-04-08T06:59:40.298Z,24.18
2023-04-08T07:00:40.358Z,24.18
2023-04-08T07:01:40.483Z,24.20
2023-04-08T07:02:40.539Z,24.19
2023-04-08T07:03:40.564Z,24.20
2023-04-08T07:04:40.531Z,24.19
2023-04-08T07:05:40.534Z,24.20
2023-04-08T07:06:40.619Z,24.20
2023-04-08T07:07:40.660Z,24.21
2023-04-08T07:08:40.677Z,24.20
2023-04-08T07:09:40.737Z,24.20
2023-04-08T07:10:40.760Z,24.20
2023-04-08T07:11:40.832Z,24.20
2023-04-08T07:12:40.843Z,24.21
2023-04-08T07:13:40.899Z,24.21
2023-04-08T07:14:40.931Z,24.22
2023-04-08T07:15:40.982Z,24.21
2023-04-08T07:16:41.034Z,24.20
2023-04-08T07:17:41.134Z,24.21
2023-04-08T07:18:41.097Z,24.21
2023-04-08T07:19:41.160Z,24.22
2023-04-08T07:20:41.194Z,24.22
2023-04-08T07:21:41.214Z,24.22
2023-04-08T07:22:41.249Z,24.22
2023-04-08T07:23:41.320Z,24.22
2023-04-08T07:24:41.323Z,24.22
2023-04-08T07:25:41.375Z,24.23
2023-04-08T07:26:41.435Z,24.22
2023-04-08T07:27:41.467Z,24.23
2023-04-08T07:28:41.462Z,24.24
2023-04-08T07:29:41.498Z,24.23
2023-04-08T07:30:41.575Z,24.23
2023-04-08T07:31:41.591Z,24.24
2023-04-08T07:32:41.621Z,24.23
2023-04-08T07:33:41.630Z,24.23
2023-04-08T07:34:41.697Z,24.23
2023-04-08T07:35:41.773Z,24.23
2023-04-08T07:36:41.774Z,24.23
2023-04-08T07:37:41.774Z,24.23
2023-04-08T07:38:41.876Z,24.23
2023-04-08T07:39:41.862Z,24.22
2023-04-08T07:40:41.916Z,24.22
2023-04-08T07:41:41.961Z,24.23
2023-04-08T07:42:41.994Z,24.23
2023-04-08T07:43:42.020Z,24.23
2023-04-08T07:44:42.055Z,24.23
2023-04-08T07:45:42.068Z,24.23
2023-04-08T07:46:42.144Z,24.22
2023-04-08T07:47:42.272Z,24.23
2023-04-08T07:48:42.215Z,24.22
2023-04-08T07:49:42.270Z,24.22
2023-04-08T07:51:08.866Z,24.23
2023-04-08T07:51:43.304Z,24.22
2023-04-08T07:52:42.275Z,24.22
2023-04-08T07:53:42.315Z,24.23
2023-04-08T07:54:42.310Z,24.23
2023-04-08T07:55:42.309Z,24.23
2023-04-08T07:56:42.325Z,24.23
2023-04-08T07:57:42.310Z,24.23
2023-04-08T07:58:42.360Z,24.24
2023-04-08T07:59:42.316Z,24.24
2023-04-08T08:00:42.332Z,24.23
2023-04-08T08:01:42.372Z,24.24
2023-04-08T08:02:42.349Z,24.25
2023-04-08T08:03:42.445Z,24.24
2023-04-08T08:04:42.481Z,24.25
2023-04-08T08:05:42.393Z,24.25
2023-04-08T08:06:42.383Z,24.25
2023-04-08T08:07:42.357Z,24.25
2023-04-08T08:08:42.350Z,24.25
2023-04-08T08:09:42.379Z,24.25
2023-04-08T08:10:42.415Z,24.26
2023-04-08T08:11:42.487Z,24.26
2023-04-08T08:12:42.535Z,24.26
2023-04-08T08:13:42.576Z,24.26
2023-04-08T08:14:42.598Z,24.26
2023-04-08T08:15:42.667Z,24.27
2023-04-08T08:16:42.662Z,24.27
2023-04-08T08:17:42.715Z,24.27
2023-04-08T08:18:42.730Z,24.28
2023-04-08T08:19:42.789Z,24.27
2023-04-08T08:20:42.852Z,24.27
2023-04-08T08:21:42.863Z,24.28
2023-04-08T08:22:50.779Z,24.28
2023-04-08T08:23:43.904Z,24.29
2023-04-08T08:24:42.898Z,24.29
2023-04-08T08:25:42.891Z,24.29
2023-04-08T08:26:42.939Z,24.29
2023-04-08T08:27:42.909Z,24.29
2023-04-08T08:28:42.929Z,24.30
2023-04-08T08:29:42.948Z,24.30
2023-04-08T08:30:42.929Z,24.31
2023-04-08T08:31:43.008Z,24.30
2023-04-08T08:32:42.976Z,24.31
2023-04-08T08:33:42.982Z,24.31
2023-04-08T08:34:42.959Z,24.31
2023-04-08T08:35:42.981Z,24.32
2023-04-08T08:36:42.983Z,24.31
2023-04-08T08:37:43.668Z,24.31
2023-04-08T08:38:42.996Z,24.31
2023-04-08T08:39:43.012Z,24.31
2023-04-08T08:40:42.979Z,24.32
2023-04-08T08:41:43.039Z,24.32
2023-04-08T08:42:43.075Z,24.32
2023-04-08T08:43:43.120Z,24.31
2023-04-08T08:44:43.130Z,24.32
2023-04-08T08:45:43.188Z,24.32
2023-04-08T08:46:43.248Z,24.31
2023-04-08T08:47:43.245Z,24.32
2023-04-08T08:48:43.289Z,24.32
2023-04-08T08:49:43.299Z,24.33
2023-04-08T08:50:43.365Z,24.32
2023-04-08T08:51:43.346Z,24.34
2023-04-08T08:52:43.399Z,24.34
2023-04-08T08:53:43.470Z,24.34
2023-04-08T08:54:43.505Z,24.33
2023-04-08T08:56:44.531Z,24.34
2023-04-08T08:57:43.573Z,24.34
2023-04-08T08:58:43.556Z,24.35
2023-04-08T08:59:43.545Z,24.36
2023-04-08T09:00:43.547Z,24.35
2023-04-08T09:01:43.650Z,24.35
2023-04-08T09:02:43.844Z,24.36
2023-04-08T09:03:43.766Z,24.36
2023-04-08T09:04:43.665Z,24.36
2023-04-08T09:05:43.626Z,24.37
2023-04-08T09:06:43.560Z,24.37
2023-04-08T09:07:43.595Z,24.36
2023-04-08T09:08:43.560Z,24.37
2023-04-08T09:09:43.594Z,24.37
2023-04-08T09:10:43.596Z,24.37
2023-04-08T09:11:43.594Z,24.38
2023-04-08T09:12:43.613Z,24.38
2023-04-08T09:13:43.591Z,24.38
2023-04-08T09:14:43.617Z,24.37
2023-04-08T09:15:43.633Z,24.38
2023-04-08T09:16:43.692Z,24.37
2023-04-08T09:17:43.660Z,24.38
2023-04-08T09:18:43.626Z,24.38
2023-04-08T09:19:43.624Z,24.37
2023-04-08T09:20:43.606Z,24.37
2023-04-08T09:21:43.695Z,24.37
2023-04-08T09:22:43.677Z,24.38
2023-04-08T09:23:43.682Z,24.37
2023-04-08T09:24:43.683Z,24.37
2023-04-08T09:25:43.726Z,24.37
2023-04-08T09:26:43.772Z,24.37
2023-04-08T09:27:43.780Z,24.37
2023-04-08T09:28:43.811Z,24.37
2023-04-08T09:29:43.812Z,24.37
2023-04-08T09:30:43.844Z,24.37
2023-04-08T09:31:43.876Z,24.38
2023-04-08T09:32:43.976Z,24.37
2023-04-08T09:33:43.947Z,24.38
2023-04-08T09:34:43.958Z,24.38
2023-04-08T09:35:43.994Z,24.38
2023-04-08T09:36:43.999Z,24.38
2023-04-08T09:37:44.050Z,24.38
2023-04-08T09:38:44.082Z,24.38
2023-04-08T09:39:44.090Z,24.39
2023-04-08T09:40:44.131Z,24.39
2023-04-08T09:41:44.202Z,24.38
2023-04-08T09:42:44.183Z,24.39
2023-04-08T09:43:44.218Z,24.39
2023-04-08T09:44:44.253Z,24.38
2023-04-08T09:45:44.298Z,24.39
2023-04-08T09:46:44.371Z,24.39
2023-04-08T09:47:44.429Z,24.39
2023-04-08T09:48:44.396Z,24.39
2023-04-08T09:49:44.397Z,24.39
2023-04-08T09:50:44.446Z,24.39
2023-04-08T09:51:44.451Z,24.40
2023-04-08T09:52:44.500Z,24.39
2023-04-08T09:53:44.533Z,24.39
2023-04-08T09:54:44.536Z,24.40
2023-04-08T09:55:44.575Z,24.41
2023-04-08T09:56:44.596Z,24.41
2023-04-08T09:57:44.646Z,24.41
2023-04-08T09:58:44.673Z,24.42
2023-04-08T09:59:44.667Z,24.40
2023-04-08T10:00:44.723Z,24.41
2023-04-08T10:01:44.759Z,24.41
2023-04-08T10:02:44.825Z,24.40
2023-04-08T10:03:44.801Z,24.40
2023-04-08T10:04:44.821Z,24.40
2023-04-08T10:05:44.842Z,24.41
2023-04-08T10:06:44.834Z,24.40
2023-04-08T10:07:44.855Z,24.40
2023-04-08T10:08:44.912Z,24.40
2023-04-08T10:09:44.908Z,24.41
2023-04-08T10:10:46.231Z,24.41
2023-04-08T10:11:44.924Z,24.40
2023-04-08T10:12:44.963Z,24.40
2023-04-08T10:13:44.913Z,24.40
2023-04-08T10:14:44.924Z,24.40
2023-04-08T10:15:44.947Z,24.40
2023-04-08T10:16:44.978Z,24.41
2023-04-08T10:17:44.979Z,24.41
2023-04-08T10:18:44.962Z,24.40
2023-04-08T10:19:44.915Z,24.40
2023-04-08T10:20:44.952Z,24.40
2023-04-08T10:21:44.934Z,24.40
2023-04-08T10:22:44.963Z,24.40
2023-04-08T10:23:44.939Z,24.40
2023-04-08T10:24:44.955Z,24.40
2023-04-08T10:25:45.056Z,24.40
2023-04-08T10:26:44.965Z,24.40
2023-04-08T10:27:44.999Z,24.40
2023-04-08T10:28:44.984Z,24.40
2023-04-08T10:29:44.975Z,24.40
2023-04-08T10:30:44.986Z,24.39
2023-04-08T10:31:45.036Z,24.39
2023-04-08T10:32:45.017Z,24.39
2023-04-08T10:33:44.960Z,24.39
2023-04-08T10:34:44.966Z,24.38
2023-04-08T10:35:45.045Z,24.38
2023-04-08T10:36:45.005Z,24.37
2023-04-08T10:37:45.013Z,24.37
2023-04-08T10:38:45.004Z,24.37
2023-04-08T10:39:45.013Z,24.37
2023-04-08T10:40:45.004Z,24.36
2023-04-08T10:41:44.980Z,24.36
2023-04-08T10:42:45.015Z,24.36
2023-04-08T10:43:45.009Z,24.36
2023-04-08T10:44:45.000Z,24.35
2023-04-08T10:45:47.971Z,24.34
2023-04-08T10:46:45.003Z,24.34
2023-04-08T10:47:44.994Z,24.34
2023-04-08T10:48:45.020Z,24.34
2023-04-08T10:49:45.022Z,24.35
2023-04-08T10:50:45.003Z,24.35
2023-04-08T10:51:45.017Z,24.34
2023-04-08T10:52:45.042Z,24.34
2023-04-08T10:53:45.021Z,24.34
2023-04-08T10:54:45.056Z,24.34
2023-04-08T10:55:45.054Z,24.34
2023-04-08T10:56:45.056Z,24.33
2023-04-08T10:57:45.039Z,24.32
2023-04-08T10:58:45.043Z,24.32
2023-04-08T10:59:45.082Z,24.32
2023-04-08T11:00:45.065Z,24.33
2023-04-08T11:01:45.240Z,24.32
2023-04-08T11:02:45.245Z,24.32
2023-04-08T11:03:45.167Z,24.32
2023-04-08T11:04:45.102Z,24.32
2023-04-08T11:05:45.135Z,24.32
2023-04-08T11:06:45.111Z,24.31
2023-04-08T11:07:45.142Z,24.32
2023-04-08T11:08:45.144Z,24.31
2023-04-08T11:09:45.128Z,24.31
2023-04-08T11:10:45.158Z,24.32
2023-04-08T11:11:45.144Z,24.32
2023-04-08T11:12:45.144Z,24.32
2023-04-08T11:13:52.738Z,24.32
2023-04-08T11:14:48.415Z,24.32
2023-04-08T11:15:45.197Z,24.33
2023-04-08T11:16:45.180Z,24.33
2023-04-08T11:17:45.216Z,24.34
2023-04-08T11:18:45.174Z,24.33
2023-04-08T11:19:45.190Z,24.34
2023-04-08T11:20:45.170Z,24.33
2023-04-08T11:21:45.186Z,24.32
2023-04-08T11:22:45.165Z,24.33
2023-04-08T11:23:45.193Z,24.34
2023-04-08T11:24:45.191Z,24.34
2023-04-08T11:25:45.182Z,24.33
2023-04-08T11:26:45.194Z,24.34
2023-04-08T11:27:45.208Z,24.35
2023-04-08T11:28:45.207Z,24.35
2023-04-08T11:29:45.218Z,24.36
2023-04-08T11:30:45.257Z,24.36
2023-04-08T11:31:45.302Z,24.36
2023-04-08T11:32:45.232Z,24.36
2023-04-08T11:33:45.187Z,24.37
2023-04-08T11:34:45.197Z,24.37
2023-04-08T11:35:45.201Z,24.38
2023-04-08T11:36:45.176Z,24.38
2023-04-08T11:37:45.169Z,24.39
2023-04-08T11:38:45.204Z,24.39
2023-04-08T11:39:45.198Z,24.40
2023-04-08T11:40:45.190Z,24.40
2023-04-08T11:41:45.186Z,24.41
2023-04-08T11:42:47.068Z,24.40
2023-04-08T11:43:45.197Z,24.41
2023-04-08T11:44:45.195Z,24.41
2023-04-08T11:45:45.171Z,24.41
2023-04-08T11:46:45.270Z,24.41
2023-04-08T11:47:45.192Z,24.42
2023-04-08T11:48:45.166Z,24.41
2023-04-08T11:49:45.192Z,24.42
2023-04-08T11:50:45.173Z,24.42
2023-04-08T11:51:45.168Z,24.41
2023-04-08T11:52:45.187Z,24.42
2023-04-08T11:53:45.168Z,24.42
2023-04-08T11:54:45.191Z,24.42
2023-04-08T11:55:45.130Z,24.43
2023-04-08T11:56:45.178Z,24.43
2023-04-08T11:57:45.169Z,24.43
2023-04-08T11:58:45.151Z,24.43
2023-04-08T11:59:45.152Z,24.42
2023-04-08T12:00:45.178Z,24.42
2023-04-08T12:01:45.165Z,24.42
2023-04-08T12:02:45.270Z,24.42
2023-04-08T12:03:45.384Z,24.42
2023-04-08T12:04:45.300Z,24.42
2023-04-08T12:05:45.204Z,24.42
2023-04-08T12:06:45.203Z,24.41
2023-04-08T12:07:45.232Z,24.41
2023-04-08T12:08:45.233Z,24.39
2023-04-08T12:09:45.238Z,24.40
2023-04-08T12:10:45.261Z,24.40
2023-04-08T12:11:45.304Z,24.40
2023-04-08T12:12:45.349Z,24.38
2023-04-08T12:13:45.339Z,24.38
2023-04-08T12:14:45.363Z,24.38
2023-04-08T12:15:45.422Z,24.37
2023-04-08T12:16:45.459Z,24.36
2023-04-08T12:17:45.509Z,24.34
2023-04-08T12:18:45.507Z,24.35
2023-04-08T12:19:45.522Z,24.34
2023-04-08T12:20:45.577Z,24.34
2023-04-08T12:21:45.614Z,24.32
2023-04-08T12:22:45.666Z,24.32
2023-04-08T12:23:45.707Z,24.33
2023-04-08T12:24:45.712Z,24.34
2023-04-08T12:25:45.737Z,24.35
2023-04-08T12:26:45.774Z,24.35
2023-04-08T12:27:45.834Z,24.36
2023-04-08T12:28:45.826Z,24.35
2023-04-08T12:29:45.890Z,24.35
2023-04-08T12:30:45.913Z,24.35
2023-04-08T12:31:46.021Z,24.35
2023-04-08T12:32:46.157Z,24.34
2023-04-08T12:33:46.045Z,24.35
2023-04-08T12:34:46.079Z,24.34
2023-04-08T12:35:46.147Z,24.34
2023-04-08T12:36:46.145Z,24.34
2023-04-08T12:37:46.188Z,24.34
2023-04-08T12:38:46.243Z,24.34
2023-04-08T12:39:46.259Z,24.34
2023-04-08T12:40:47.302Z,24.34
2023-04-08T12:41:46.364Z,24.34
2023-04-08T12:42:46.330Z,24.34
2023-04-08T12:43:46.392Z,24.34
2023-04-08T12:44:46.408Z,24.35
2023-04-08T12:45:46.437Z,24.35
2023-04-08T12:46:46.548Z,24.36
2023-04-08T12:47:46.553Z,24.36
2023-04-08T12:48:47.494Z,24.36
2023-04-08T12:49:49.851Z,24.35
2023-04-08T12:50:46.542Z,24.36
2023-04-08T12:51:46.604Z,24.35
2023-04-08T12:52:46.535Z,24.36
2023-04-08T12:53:46.551Z,24.34